createdAt,value
2023-04-16T00:00:30.873Z,65.00
2023-04-16T00:03:18.923Z,65.19
2023-04-16T00:05:47.191Z,65.40
2023-04-16T00:08:15.876Z,65.33
2023-04-16T00:10:43.949Z,65.59
2023-04-16T00:13:11.841Z,65.79
2023-04-16T00:15:39.771Z,66.07
2023-04-16T00:18:07.956Z,66.14
2023-04-16T00:20:35.757Z,65.98
2023-04-16T00:23:03.571Z,66.00
2023-04-16T00:25:31.587Z,66.15
2023-04-16T00:27:59.502Z,66.46
2023-04-16T00:30:27.394Z,66.22
2023-04-16T00:32:55.336Z,69.46
2023-04-16T00:35:23.335Z,71.85
2023-04-16T00:37:51.222Z,69.87
2023-04-16T00:40:19.217Z,69.68
2023-04-16T00:42:47.085Z,70.86
2023-04-16T00:45:14.948Z,71.33
2023-04-16T00:47:42.895Z,71.22
2023-04-16T00:50:11.629Z,70.69
2023-04-16T00:52:40.824Z,69.72
2023-04-16T00:55:13.301Z,69.26
2023-04-16T00:57:41.364Z,69.18
2023-04-16T01:00:09.940Z,69.16
2023-04-16T01:02:38.338Z,68.85
2023-04-16T01:05:06.692Z,68.80
2023-04-16T01:07:34.539Z,68.56
2023-04-16T01:10:03.321Z,68.35
2023-04-16T01:12:32.460Z,68.17
2023-04-16T01:15:00.782Z,67.78
2023-04-16T01:17:28.749Z,67.99
2023-04-16T01:20:00.918Z,67.71
2023-04-16T01:22:29.380Z,68.00
2023-04-16T01:24:57.225Z,68.19
2023-04-16T01:27:25.279Z,68.33
2023-04-16T01:29:53.156Z,68.63
2023-04-16T01:32:25.929Z,68.44
2023-04-16T01:34:53.951Z,68.50
2023-04-16T01:37:22.242Z,68.92
2023-04-16T01:39:50.317Z,68.77
2023-04-16T01:42:18.196Z,69.17
2023-04-16T01:44:47.439Z,69.01
2023-04-16T01:47:15.637Z,71.66
2023-04-16T01:49:45.647Z,70.69
2023-04-16T01:52:13.866Z,69.84
2023-04-16T01:54:41.886Z,69.58
2023-04-16T01:57:09.881Z,69.64
2023-04-16T01:59:37.681Z,70.75
2023-04-16T02:02:11.563Z,70.45
2023-04-16T02:04:42.077Z,70.42
2023-04-16T02:07:10.364Z,70.20
2023-04-16T02:09:40.267Z,70.03
2023-04-16T02:12:09.579Z,70.16
2023-04-16T02:14:37.866Z,70.02
2023-04-16T02:17:06.096Z,69.96
2023-04-16T02:19:38.327Z,70.12
2023-04-16T02:22:07.182Z,70.30
2023-04-16T02:24:35.011Z,70.46
2023-04-16T02:27:06.079Z,71.69
2023-04-16T02:29:34.030Z,71.13
2023-04-16T02:32:08.932Z,70.93
2023-04-16T02:34:39.895Z,71.00
2023-04-16T02:37:07.863Z,71.10
2023-04-16T02:39:36.372Z,71.10
2023-04-16T02:42:04.326Z,72.95
2023-04-16T02:44:32.261Z,74.85
2023-04-16T02:47:00.274Z,73.24
2023-04-16T02:49:28.446Z,72.66
2023-04-16T02:51:56.348Z,72.41
2023-04-16T02:54:24.363Z,72.11
2023-04-16T02:56:52.264Z,71.61
2023-04-16T02:59:20.176Z,71.58
2023-04-16T03:01:48.132Z,71.25
2023-04-16T03:04:16.478Z,71.23
2023-04-16T03:06:44.703Z,71.41
2023-04-16T03:09:12.723Z,71.28
2023-04-16T03:11:40.844Z,71.05
2023-04-16T03:14:08.709Z,71.16
2023-04-16T03:16:36.794Z,70.99
2023-04-16T03:19:04.777Z,71.17
2023-04-16T03:21:33.201Z,73.03
2023-04-16T03:24:04.051Z,71.89
2023-04-16T03:26:31.974Z,71.77
2023-04-16T03:28:59.903Z,71.50
2023-04-16T03:31:28.595Z,71.39
2023-04-16T03:33:57.134Z,71.77
2023-04-16T03:36:27.014Z,71.88
2023-04-16T03:38:54.910Z,71.94
2023-04-16T03:41:23.166Z,72.01
2023-04-16T03:43:51.074Z,72.05
2023-04-16T03:46:19.185Z,72.12
2023-04-16T03:48:47.072Z,72.33
2023-04-16T03:51:15.419Z,72.60
2023-04-16T03:53:43.533Z,72.76
2023-04-16T03:56:11.396Z,72.87
2023-04-16T03:58:39.199Z,73.35
2023-04-16T04:01:07.063Z,73.39
2023-04-16T04:03:36.710Z,73.33
2023-04-16T04:06:09.005Z,73.43
2023-04-16T04:08:36.968Z,73.57
2023-04-16T04:11:05.158Z,73.57
2023-04-16T04:13:33.996Z,73.31
2023-04-16T04:16:02.024Z,73.48
2023-04-16T04:18:30.324Z,73.52
2023-04-16T04:20:58.202Z,73.44
2023-04-16T04:23:28.584Z,75.00
2023-04-16T04:25:56.616Z,74.17
2023-04-16T04:28:25.403Z,75.26
2023-04-16T04:30:53.270Z,74.72
2023-04-16T04:33:21.210Z,75.95
2023-04-16T04:35:49.202Z,75.39
2023-04-16T04:38:22.106Z,74.67
2023-04-16T04:41:26.808Z,74.55
2023-04-16T04:44:59.705Z,74.34
2023-04-16T04:48:32.758Z,74.84
2023-04-16T04:52:15.345Z,75.92
2023-04-16T04:55:28.712Z,75.61
2023-04-16T04:59:01.824Z,75.48
2023-04-16T05:02:38.905Z,75.18
2023-04-16T05:06:08.746Z,76.67
2023-04-16T05:09:36.800Z,77.35
2023-04-16T05:13:15.772Z,76.11
2023-04-16T05:16:44.997Z,77.55
2023-04-16T05:20:21.777Z,76.82
2023-04-16T05:23:32.692Z,75.81
2023-04-16T05:26:46.755Z,76.15
2023-04-16T05:30:27.731Z,76.81
2023-04-16T05:33:39.914Z,78.27
2023-04-16T05:36:54.773Z,77.50
2023-04-16T05:40:23.953Z,76.87
2023-04-16T05:43:43.027Z,76.20
2023-04-16T05:47:27.799Z,76.46
2023-04-16T05:50:59.705Z,77.09
2023-04-16T05:54:07.802Z,76.42
2023-04-16T05:57:32.746Z,74.49
2023-04-16T06:04:12.911Z,73.90
2023-04-16T06:07:37.007Z,73.65
2023-04-16T06:10:54.761Z,73.24
2023-04-16T06:14:34.727Z,72.74
2023-04-16T06:17:46.805Z,72.33
2023-04-16T06:20:29.649Z,72.35
2023-04-16T06:22:57.967Z,71.93
2023-04-16T06:25:25.878Z,71.78
2023-04-16T06:27:53.912Z,71.88
2023-04-16T06:30:21.989Z,72.07
2023-04-16T06:32:49.876Z,72.15
2023-04-16T06:35:20.136Z,71.83
2023-04-16T06:37:48.356Z,71.56
2023-04-16T06:40:16.601Z,71.44
2023-04-16T06:42:45.641Z,71.45
2023-04-16T06:45:13.769Z,71.20
2023-04-16T06:47:41.813Z,71.13
2023-04-16T06:50:10.381Z,70.96
2023-04-16T06:52:38.263Z,71.04
2023-04-16T06:55:08.292Z,70.51
2023-04-16T06:57:37.620Z,70.25
2023-04-16T07:00:06.457Z,69.85
2023-04-16T07:02:34.808Z,69.95
2023-04-16T07:05:03.134Z,69.68
2023-04-16T07:07:31.302Z,69.56
2023-04-16T07:09:59.744Z,69.48
2023-04-16T07:12:27.819Z,69.45
2023-04-16T07:14:56.623Z,69.47
2023-04-16T07:17:24.586Z,69.31
2023-04-16T07:19:53.078Z,69.08
2023-04-16T07:22:21.238Z,69.17
2023-04-16T07:24:49.178Z,69.10
2023-04-16T07:27:17.271Z,68.63
2023-04-16T07:29:45.882Z,68.49
2023-04-16T07:32:15.482Z,67.66
2023-04-16T07:34:43.635Z,67.63
2023-04-16T07:37:11.521Z,65.93
2023-04-16T07:39:39.390Z,66.03
2023-04-16T07:42:07.346Z,65.35
2023-04-16T07:44:35.190Z,63.84
2023-04-16T07:47:05.416Z,62.97
2023-04-16T07:49:34.175Z,62.23
2023-04-16T07:52:03.689Z,62.05
2023-04-16T07:54:31.612Z,61.85
2023-04-16T07:56:59.682Z,61.67
2023-04-16T07:59:27.899Z,61.33
2023-04-16T08:01:56.048Z,59.53
2023-04-16T08:04:26.385Z,59.11
2023-04-16T08:06:54.562Z,57.87
2023-04-16T08:09:24.244Z,56.38
2023-04-16T08:11:52.272Z,55.31
2023-04-16T08:14:20.724Z,55.71
2023-04-16T08:16:48.667Z,54.84
2023-04-16T08:19:17.093Z,53.78
2023-04-16T08:21:45.022Z,52.98
2023-04-16T08:24:13.298Z,51.23
2023-04-16T08:26:41.260Z,50.63
2023-04-16T08:29:09.499Z,50.52
2023-04-16T08:31:37.822Z,50.69
2023-04-16T08:34:05.940Z,47.76
2023-04-16T08:36:33.936Z,47.81
2023-04-16T08:39:01.859Z,45.96
2023-04-16T08:41:34.291Z,45.91
2023-04-16T08:44:08.306Z,47.66
2023-04-16T08:46:38.087Z,47.32
2023-04-16T08:49:08.371Z,45.60
2023-04-16T08:51:38.870Z,45.70
2023-04-16T08:54:14.952Z,45.71
2023-04-16T08:56:43.275Z,42.94
2023-04-16T08:59:11.623Z,44.26
2023-04-16T09:01:41.860Z,43.46
2023-04-16T09:04:10.117Z,43.19
2023-04-16T09:06:38.869Z,42.91
2023-04-16T09:09:08.949Z,43.85
2023-04-16T09:11:39.531Z,44.06
2023-04-16T09:14:13.659Z,43.61
2023-04-16T09:16:45.196Z,43.03
2023-04-16T09:19:15.425Z,42.97
2023-04-16T09:21:46.971Z,41.96
2023-04-16T09:24:14.892Z,41.09
2023-04-16T09:26:44.149Z,41.14
2023-04-16T09:29:42.939Z,41.03
2023-04-16T09:33:10.373Z,40.47
2023-04-16T09:36:40.845Z,40.19
2023-04-16T09:40:03.806Z,39.07
2023-04-16T09:43:36.722Z,39.38
2023-04-16T09:46:52.773Z,39.68
2023-04-16T09:50:18.590Z,38.21
2023-04-16T09:53:04.595Z,38.09
2023-04-16T09:56:51.806Z,38.28
2023-04-16T10:00:12.811Z,38.47
2023-04-16T10:03:43.876Z,39.02
2023-04-16T10:06:59.385Z,38.95
2023-04-16T10:10:00.790Z,38.07
2023-04-16T10:13:19.911Z,37.48
2023-04-16T10:16:15.745Z,37.18
2023-04-16T10:22:48.782Z,37.86
2023-04-16T10:29:52.787Z,36.38
2023-04-16T10:37:07.770Z,36.65
2023-04-16T10:40:55.606Z,36.09
2023-04-16T10:44:32.095Z,36.04
2023-04-16T10:59:18.360Z,35.09
2023-04-16T11:10:36.835Z,32.80
2023-04-16T11:14:44.826Z,32.32
2023-04-16T11:18:33.123Z,32.73
2023-04-16T11:22:10.788Z,32.61
2023-04-16T11:25:56.015Z,33.13
2023-04-16T11:29:26.749Z,33.54
2023-04-16T11:32:58.865Z,32.76
2023-04-16T11:36:29.108Z,32.53
2023-04-16T11:40:24.792Z,32.80
2023-04-16T11:44:03.821Z,33.21
2023-04-16T11:47:38.171Z,33.37
2023-04-16T11:51:28.831Z,33.02
2023-04-16T11:55:27.832Z,33.21
2023-04-16T12:03:01.043Z,33.36
2023-04-16T12:06:39.863Z,31.81
2023-04-16T12:10:07.898Z,31.36
2023-04-16T12:17:41.821Z,30.39
2023-04-16T12:21:19.726Z,30.30
2023-04-16T12:25:05.708Z,28.86
2023-04-16T12:31:51.845Z,30.62
2023-04-16T12:39:14.846Z,30.22
2023-04-16T12:42:48.174Z,29.80
2023-04-16T12:50:21.403Z,29.46
2023-04-16T12:53:51.815Z,29.83
2023-04-16T12:57:23.848Z,29.99
2023-04-16T13:00:50.796Z,29.26
2023-04-16T13:04:31.909Z,28.17
2023-04-16T13:08:10.607Z,28.47
2023-04-16T13:11:43.815Z,29.38
2023-04-16T13:15:07.884Z,30.22
2023-04-16T13:18:32.893Z,30.80
2023-04-16T13:21:01.365Z,31.11
2023-04-16T13:23:29.374Z,31.21
2023-04-16T13:25:57.547Z,31.43
2023-04-16T13:28:25.645Z,32.13
2023-04-16T13:30:54.050Z,32.09
2023-04-16T13:33:22.016Z,32.24
2023-04-16T13:35:50.590Z,32.92
2023-04-16T13:38:18.532Z,32.17
2023-04-16T13:40:46.806Z,32.35
2023-04-16T13:43:17.155Z,33.63
2023-04-16T13:45:45.940Z,35.86
2023-04-16T13:48:13.940Z,38.68
2023-04-16T13:50:41.820Z,41.67
2023-04-16T13:53:09.735Z,44.57
2023-04-16T13:55:37.540Z,46.13
2023-04-16T13:58:32.957Z,46.89
2023-04-16T14:02:12.805Z,49.21
2023-04-16T14:05:58.318Z,50.95
2023-04-16T14:09:42.785Z,52.86
2023-04-16T14:13:33.801Z,52.05
2023-04-16T14:17:05.957Z,53.25
2023-04-16T14:20:51.832Z,53.70
2023-04-16T14:23:51.744Z,54.45
2023-04-16T14:26:19.602Z,55.50
2023-04-16T14:28:47.744Z,55.04
2023-04-16T14:31:17.190Z,55.14
2023-04-16T14:33:48.049Z,55.36
2023-04-16T14:36:16.336Z,55.61
2023-04-16T14:38:44.390Z,55.43
2023-04-16T14:41:12.873Z,55.75
2023-04-16T14:43:41.306Z,55.61
2023-04-16T14:46:09.845Z,56.29
2023-04-16T14:48:38.151Z,55.77
2023-04-16T14:51:10.170Z,55.05
2023-04-16T14:53:38.643Z,53.90
2023-04-16T14:56:06.814Z,53.46
2023-04-16T14:58:37.865Z,53.16
2023-04-16T15:01:07.034Z,53.03
2023-04-16T15:03:35.183Z,52.78
2023-04-16T15:06:03.203Z,52.68
2023-04-16T15:08:31.445Z,51.92
2023-04-16T15:10:59.214Z,51.65
2023-04-16T15:13:33.638Z,51.46
2023-04-16T15:16:01.724Z,50.43
2023-04-16T15:18:29.825Z,49.72
2023-04-16T15:20:57.822Z,49.60
2023-04-16T15:23:25.726Z,49.37
2023-04-16T15:25:53.576Z,48.58
2023-04-16T15:28:21.540Z,48.72
2023-04-16T15:30:49.340Z,49.15
2023-04-16T15:33:17.299Z,48.61
2023-04-16T15:35:46.372Z,47.79
2023-04-16T15:38:14.334Z,47.20
2023-04-16T15:40:42.315Z,46.97
2023-04-16T15:43:10.292Z,46.69
2023-04-16T15:45:38.223Z,48.04
2023-04-16T15:48:06.444Z,52.44
2023-04-16T15:50:34.722Z,54.84
2023-04-16T15:53:03.301Z,57.18
2023-04-16T15:55:31.270Z,58.43
2023-04-16T15:57:59.193Z,62.00
2023-04-16T16:00:27.717Z,63.25
2023-04-16T16:02:55.706Z,62.16
2023-04-16T16:05:23.822Z,63.87
2023-04-16T16:07:51.789Z,62.90
2023-04-16T16:10:20.302Z,65.62
2023-04-16T16:12:49.215Z,64.49
2023-04-16T16:15:17.568Z,63.08
2023-04-16T16:17:47.977Z,61.90
2023-04-16T16:20:16.468Z,62.66
2023-04-16T16:22:46.614Z,62.95
2023-04-16T16:25:14.526Z,63.91
2023-04-16T16:27:42.658Z,64.65
2023-04-16T16:30:11.146Z,64.96
2023-04-16T16:32:41.182Z,65.29
2023-04-16T16:35:09.653Z,66.27
2023-04-16T16:37:37.929Z,65.21
2023-04-16T16:40:06.381Z,64.60
2023-04-16T16:42:34.842Z,64.45
2023-04-16T16:45:05.304Z,64.40
2023-04-16T16:47:33.419Z,65.14
2023-04-16T16:50:02.991Z,65.13
2023-04-16T16:52:32.046Z,65.77
2023-04-16T16:54:59.936Z,68.12
2023-04-16T16:57:27.881Z,67.61
2023-04-16T16:59:55.917Z,67.24
2023-04-16T17:02:24.000Z,67.41
2023-04-16T17:04:52.816Z,67.57
2023-04-16T17:07:20.908Z,68.57
2023-04-16T17:09:48.943Z,68.88
2023-04-16T17:12:16.938Z,69.11
2023-04-16T17:14:49.350Z,67.98
2023-04-16T17:17:17.528Z,67.70
2023-04-16T17:19:45.532Z,67.50
2023-04-16T17:22:13.479Z,66.99
2023-04-16T17:24:41.399Z,68.25
2023-04-16T17:27:09.277Z,67.23
2023-04-16T17:29:37.061Z,66.86
2023-04-16T17:32:05.541Z,66.49
2023-04-16T17:34:33.554Z,66.46
2023-04-16T17:37:01.631Z,67.38
2023-04-16T17:39:29.571Z,66.83
2023-04-16T17:41:58.593Z,66.39
2023-04-16T17:44:27.948Z,66.14
2023-04-16T17:46:55.915Z,66.02
2023-04-16T17:49:23.915Z,65.73
2023-04-16T17:51:53.761Z,66.03
2023-04-16T17:54:21.823Z,66.43
2023-04-16T17:56:50.004Z,67.21
2023-04-16T17:59:18.485Z,66.97
2023-04-16T18:01:46.798Z,67.35
2023-04-16T18:04:15.351Z,66.39
2023-04-16T18:06:43.570Z,66.24
2023-04-16T18:09:12.088Z,70.60
2023-04-16T18:11:39.886Z,71.72
2023-04-16T18:14:09.934Z,71.65
2023-04-16T18:16:38.047Z,74.14
2023-04-16T18:19:06.445Z,72.29
2023-04-16T18:21:35.404Z,76.05
2023-04-16T18:24:03.640Z,76.42
2023-04-16T18:26:35.632Z,75.57
2023-04-16T18:29:05.505Z,76.69
2023-04-16T18:31:33.536Z,75.89
2023-04-16T18:34:01.581Z,76.31
2023-04-16T18:36:29.717Z,74.44
2023-04-16T18:39:02.274Z,74.26
2023-04-16T18:41:47.779Z,75.25
2023-04-16T18:44:17.146Z,76.40
2023-04-16T18:46:46.029Z,76.18
2023-04-16T18:49:14.050Z,74.86
2023-04-16T18:51:42.273Z,74.62
2023-04-16T18:54:10.401Z,74.38
2023-04-16T18:56:38.371Z,73.89
2023-04-16T18:59:06.388Z,73.17
2023-04-16T19:01:34.179Z,72.21
2023-04-16T19:04:03.039Z,71.54
2023-04-16T19:06:31.803Z,71.10
2023-04-16T19:08:59.782Z,70.61
2023-04-16T19:11:27.744Z,70.20
2023-04-16T19:13:55.646Z,70.37
2023-04-16T19:16:26.551Z,69.99
2023-04-16T19:18:54.584Z,69.93
2023-04-16T19:21:22.819Z,69.66
2023-04-16T19:23:50.750Z,70.01
2023-04-16T19:26:18.774Z,70.28
2023-04-16T19:28:46.816Z,69.81
2023-04-16T19:31:14.759Z,69.87
2023-04-16T19:33:42.779Z,69.91
2023-04-16T19:36:11.109Z,69.91
2023-04-16T19:38:38.984Z,70.14
2023-04-16T19:41:06.881Z,70.30
2023-04-16T19:43:36.900Z,71.10
2023-04-16T19:46:04.756Z,70.92
2023-04-16T19:48:32.639Z,70.89
2023-04-16T19:51:03.391Z,71.04
2023-04-16T19:53:31.337Z,71.40
2023-04-16T19:55:59.241Z,71.44
2023-04-16T19:58:27.193Z,71.24
2023-04-16T20:00:55.710Z,71.58
2023-04-16T20:03:23.996Z,71.36
2023-04-16T20:05:51.829Z,72.26
2023-04-16T20:08:19.999Z,72.77
2023-04-16T20:10:48.116Z,73.04
2023-04-16T20:13:18.587Z,72.87
2023-04-16T20:15:47.235Z,72.83
2023-04-16T20:18:15.436Z,72.96
2023-04-16T20:20:43.329Z,73.78
2023-04-16T20:23:11.310Z,74.04
2023-04-16T20:25:42.535Z,73.81
2023-04-16T20:28:10.454Z,74.21
2023-04-16T20:30:39.412Z,74.13
2023-04-16T20:33:08.673Z,74.74
2023-04-16T20:35:36.969Z,75.42
2023-04-16T20:38:04.784Z,75.63
2023-04-16T20:40:32.698Z,75.54
2023-04-16T20:43:00.613Z,76.33
2023-04-16T20:45:32.115Z,76.53
2023-04-16T20:48:00.225Z,77.09
2023-04-16T20:50:28.803Z,78.27
2023-04-16T20:52:56.650Z,77.79
2023-04-16T20:55:24.682Z,77.14
2023-04-16T20:57:52.615Z,77.87
2023-04-16T21:00:20.764Z,77.75
2023-04-16T21:02:48.802Z,77.43
2023-04-16T21:05:16.813Z,77.45
2023-04-16T21:07:44.695Z,77.95
2023-04-16T21:10:12.631Z,77.51
2023-04-16T21:12:40.668Z,77.14
2023-04-16T21:15:08.834Z,77.31
2023-04-16T21:17:36.655Z,77.59
2023-04-16T21:20:06.965Z,77.78
2023-04-16T21:22:34.778Z,77.31
2023-04-16T21:25:02.665Z,78.56
2023-04-16T21:27:30.814Z,78.25
2023-04-16T21:29:58.962Z,78.99
2023-04-16T21:32:26.895Z,78.42
2023-04-16T21:34:54.771Z,77.68
2023-04-16T21:37:22.636Z,78.63
2023-04-16T21:39:50.559Z,80.36
2023-04-16T21:42:18.442Z,78.82
2023-04-16T21:44:46.520Z,79.82
2023-04-16T21:47:14.567Z,80.46
2023-04-16T21:49:42.354Z,81.56
2023-04-16T21:52:14.021Z,83.12
2023-04-16T21:54:41.945Z,83.76
2023-04-16T21:57:10.338Z,84.30
2023-04-16T21:59:39.203Z,84.10
2023-04-16T22:02:07.250Z,84.73
2023-04-16T22:04:38.633Z,84.02
2023-04-16T22:07:08.898Z,83.81
2023-04-16T22:09:36.811Z,82.07
2023-04-16T22:12:06.926Z,82.73
2023-04-16T22:14:34.989Z,82.05
2023-04-16T22:17:03.352Z,81.50
2023-04-16T22:19:31.708Z,81.35
2023-04-16T22:21:59.694Z,81.33
2023-04-16T22:24:28.151Z,81.13
2023-04-16T22:26:56.918Z,80.57
2023-04-16T22:29:24.920Z,80.31
2023-04-16T22:31:52.906Z,80.61
2023-04-16T22:34:20.845Z,80.33
2023-04-16T22:36:48.809Z,80.05
2023-04-16T22:39:16.656Z,79.97
2023-04-16T22:41:44.612Z,79.81
2023-04-16T22:44:12.693Z,79.86
2023-04-16T22:46:40.776Z,79.68
2023-04-16T22:49:08.632Z,79.57
2023-04-16T22:51:38.175Z,79.38
2023-04-16T22:54:07.244Z,81.03
2023-04-16T22:56:35.599Z,80.05
2023-04-16T22:59:03.438Z,79.84
2023-04-16T23:01:31.726Z,80.18
2023-04-16T23:03:59.887Z,79.96
2023-04-16T23:06:27.886Z,81.73
2023-04-16T23:08:55.925Z,81.31
2023-04-16T23:11:23.903Z,81.28
2023-04-16T23:13:51.832Z,81.10
2023-04-16T23:16:19.644Z,83.02
2023-04-16T23:18:47.506Z,84.36
2023-04-16T23:21:15.413Z,84.54
2023-04-16T23:23:43.366Z,85.15
2023-04-16T23:26:11.185Z,85.72
2023-04-16T23:28:39.042Z,85.84
2023-04-16T23:31:07.559Z,86.26
2023-04-16T23:34:01.919Z,86.46
2023-04-16T23:37:39.910Z,85.17
2023-04-16T23:41:13.807Z,85.97
2023-04-16T23:44:49.900Z,86.50
2023-04-16T23:48:22.855Z,86.75
2023-04-16T23:51:56.807Z,87.49
2023-04-16T23:55:32.859Z,88.33
2023-04-16T23:59:01.833Z,88.23
